MET'MAP v2.0
soon released !

Expected late october,
this new version will be
more efficient, smarter,
and hosted on a brand new
server x3 powerfull...
...and still free !


Not compatible ?
Try the mobile version !

LOG IN : | Subscribe | Disclaimer | Who is Orbifly ? |
ICAO code :

TAF - EDMO Oberpfaffenhofen - 21 Nov 2019 09:30 UTC
Data Sources :     NOAA   


- Airport Elevation : 1947 ft
- IATA code : OBF
- No reported NOTAMs.


EDMO - Oberpfaffenhofen

Latest METAR recorded : 2015/08/11 07:50 EDMO 110750Z 24005KT 200V270 CAVOK 23/18 Q1018
TAF TAF EDMO
Valid from the 21 at 07:00 until the 21 at 15:00 UTC


210640Z 2107/2115 VRB03KT 1200 BR OVC002
BECMG 2108/2110 BKN008
TEMPO 2110/2115 BKN012

Source NOAA


MET'MAP, your aeronautical weather chart ! - Copyright ORBIFLY December 2007

Programming & Development : Alexandra Zaïnal
Co-Developer : Marc-Olivier Méhu
Technical & hardware support : Manuel Goepfert
Concept & Financing : Baudouin d'Aumeries